sensor_id;sensor_type;location;lat;lon;timestamp;P1;durP1;ratioP1;P2;durP2;ratioP2
33413;SDS011;60055;41.884;12.534;2023-03-14T00:01:20;39.33;;;14.15;;
33413;SDS011;60055;41.884;12.534;2023-03-14T00:03:46;43.17;;;14.45;;
33413;SDS011;60055;41.884;12.534;2023-03-14T00:06:11;36.88;;;12.85;;
33413;SDS011;60055;41.884;12.534;2023-03-14T00:08:38;36.17;;;13.40;;
33413;SDS011;60055;41.884;12.534;2023-03-14T00:11:05;39.10;;;12.88;;
33413;SDS011;60055;41.884;12.534;2023-03-14T00:13:31;35.13;;;12.77;;
33413;SDS011;60055;41.884;12.534;2023-03-14T00:16:01;45.65;;;14.43;;
33413;SDS011;60055;41.884;12.534;2023-03-14T00:18:27;35.65;;;14.02;;
33413;SDS011;60055;41.884;12.534;2023-03-14T00:20:53;41.78;;;14.40;;
33413;SDS011;60055;41.884;12.534;2023-03-14T00:23:18;46.33;;;15.27;;
33413;SDS011;60055;41.884;12.534;2023-03-14T00:25:43;37.88;;;14.43;;
33413;SDS011;60055;41.884;12.534;2023-03-14T00:28:09;43.95;;;15.35;;
33413;SDS011;60055;41.884;12.534;2023-03-14T00:30:36;36.38;;;13.95;;
33413;SDS011;60055;41.884;12.534;2023-03-14T00:33:02;38.10;;;13.88;;
33413;SDS011;60055;41.884;12.534;2023-03-14T00:35:28;39.25;;;15.13;;
33413;SDS011;60055;41.884;12.534;2023-03-14T00:37:53;46.42;;;14.85;;
33413;SDS011;60055;41.884;12.534;2023-03-14T00:40:18;42.80;;;15.07;;
33413;SDS011;60055;41.884;12.534;2023-03-14T00:42:44;35.67;;;14.15;;
33413;SDS011;60055;41.884;12.534;2023-03-14T00:45:09;40.13;;;14.80;;
33413;SDS011;60055;41.884;12.534;2023-03-14T00:47:35;47.38;;;15.57;;
33413;SDS011;60055;41.884;12.534;2023-03-14T00:50:00;43.08;;;15.60;;
33413;SDS011;60055;41.884;12.534;2023-03-14T00:52:26;44.47;;;15.40;;
33413;SDS011;60055;41.884;12.534;2023-03-14T00:54:51;39.35;;;16.08;;
33413;SDS011;60055;41.884;12.534;2023-03-14T00:57:16;46.35;;;15.48;;
33413;SDS011;60055;41.884;12.534;2023-03-14T00:59:48;39.33;;;15.20;;
33413;SDS011;60055;41.884;12.534;2023-03-14T01:02:15;37.42;;;14.75;;
33413;SDS011;60055;41.884;12.534;2023-03-14T01:04:40;38.33;;;14.80;;
33413;SDS011;60055;41.884;12.534;2023-03-14T01:07:08;39.97;;;15.18;;
33413;SDS011;60055;41.884;12.534;2023-03-14T01:09:33;41.47;;;15.38;;
33413;SDS011;60055;41.884;12.534;2023-03-14T01:11:58;37.33;;;14.75;;
33413;SDS011;60055;41.884;12.534;2023-03-14T01:14:24;40.75;;;16.00;;
33413;SDS011;60055;41.884;12.534;2023-03-14T01:16:49;50.80;;;17.67;;
33413;SDS011;60055;41.884;12.534;2023-03-14T01:19:15;37.50;;;15.55;;
33413;SDS011;60055;41.884;12.534;2023-03-14T01:21:40;45.65;;;17.25;;
33413;SDS011;60055;41.884;12.534;2023-03-14T01:24:06;41.00;;;15.93;;
33413;SDS011;60055;41.884;12.534;2023-03-14T01:26:32;39.70;;;15.18;;
33413;SDS011;60055;41.884;12.534;2023-03-14T01:28:59;41.70;;;15.68;;
33413;SDS011;60055;41.884;12.534;2023-03-14T01:31:25;45.42;;;15.93;;
33413;SDS011;60055;41.884;12.534;2023-03-14T01:33:51;37.63;;;15.20;;
33413;SDS011;60055;41.884;12.534;2023-03-14T01:36:17;43.28;;;16.23;;
33413;SDS011;60055;41.884;12.534;2023-03-14T01:38:43;40.65;;;15.38;;
33413;SDS011;60055;41.884;12.534;2023-03-14T01:41:12;35.22;;;15.15;;
33413;SDS011;60055;41.884;12.534;2023-03-14T01:43:40;34.58;;;14.85;;
33413;SDS011;60055;41.884;12.534;2023-03-14T01:48:31;33.05;;;15.70;;
33413;SDS011;60055;41.884;12.534;2023-03-14T01:51:02;35.05;;;15.77;;
33413;SDS011;60055;41.884;12.534;2023-03-14T01:53:33;36.17;;;15.70;;
33413;SDS011;60055;41.884;12.534;2023-03-14T01:56:00;33.58;;;14.60;;
33413;SDS011;60055;41.884;12.534;2023-03-14T01:58:26;33.58;;;14.98;;
33413;SDS011;60055;41.884;12.534;2023-03-14T02:00:55;30.65;;;13.68;;
33413;SDS011;60055;41.884;12.534;2023-03-14T02:03:23;31.17;;;13.85;;
33413;SDS011;60055;41.884;12.534;2023-03-14T02:05:51;30.40;;;13.52;;
33413;SDS011;60055;41.884;12.534;2023-03-14T02:08:21;31.65;;;13.05;;
33413;SDS011;60055;41.884;12.534;2023-03-14T02:10:48;28.42;;;13.13;;
33413;SDS011;60055;41.884;12.534;2023-03-14T02:13:17;35.47;;;14.18;;
33413;SDS011;60055;41.884;12.534;2023-03-14T02:15:45;25.70;;;12.23;;
33413;SDS011;60055;41.884;12.534;2023-03-14T02:18:11;28.80;;;12.23;;
33413;SDS011;60055;41.884;12.534;2023-03-14T02:29:31;28.98;;;11.20;;
33413;SDS011;60055;41.884;12.534;2023-03-14T02:32:01;23.02;;;11.20;;
33413;SDS011;60055;41.884;12.534;2023-03-14T02:34:27;29.30;;;11.90;;
33413;SDS011;60055;41.884;12.534;2023-03-14T02:36:53;25.55;;;11.55;;
33413;SDS011;60055;41.884;12.534;2023-03-14T02:39:24;29.33;;;11.73;;
33413;SDS011;60055;41.884;12.534;2023-03-14T02:41:56;23.60;;;11.20;;
33413;SDS011;60055;41.884;12.534;2023-03-14T02:44:22;21.90;;;11.85;;
33413;SDS011;60055;41.884;12.534;2023-03-14T02:46:47;28.58;;;11.93;;
33413;SDS011;60055;41.884;12.534;2023-03-14T02:49:13;24.58;;;10.65;;
33413;SDS011;60055;41.884;12.534;2023-03-14T02:51:39;19.80;;;9.98;;
33413;SDS011;60055;41.884;12.534;2023-03-14T02:54:07;23.95;;;10.77;;
33413;SDS011;60055;41.884;12.534;2023-03-14T02:56:32;20.50;;;10.20;;
33413;SDS011;60055;41.884;12.534;2023-03-14T02:58:58;24.65;;;10.52;;
33413;SDS011;60055;41.884;12.534;2023-03-14T03:01:24;23.65;;;11.07;;
33413;SDS011;60055;41.884;12.534;2023-03-14T03:03:50;21.48;;;10.18;;
33413;SDS011;60055;41.884;12.534;2023-03-14T03:06:15;19.77;;;9.77;;
33413;SDS011;60055;41.884;12.534;2023-03-14T03:08:41;19.60;;;9.60;;
33413;SDS011;60055;41.884;12.534;2023-03-14T03:11:07;24.85;;;10.10;;
33413;SDS011;60055;41.884;12.534;2023-03-14T03:13:32;22.88;;;9.70;;
33413;SDS011;60055;41.884;12.534;2023-03-14T03:15:58;17.75;;;9.20;;
33413;SDS011;60055;41.884;12.534;2023-03-14T03:18:23;17.48;;;9.57;;
33413;SDS011;60055;41.884;12.534;2023-03-14T03:20:49;18.67;;;8.75;;
33413;SDS011;60055;41.884;12.534;2023-03-14T03:23:14;20.38;;;9.23;;
33413;SDS011;60055;41.884;12.534;2023-03-14T03:25:40;17.40;;;8.50;;
33413;SDS011;60055;41.884;12.534;2023-03-14T03:28:05;16.55;;;8.15;;
33413;SDS011;60055;41.884;12.534;2023-03-14T03:30:33;15.02;;;8.57;;
33413;SDS011;60055;41.884;12.534;2023-03-14T03:33:05;20.42;;;8.82;;
33413;SDS011;60055;41.884;12.534;2023-03-14T03:35:30;14.45;;;8.52;;
33413;SDS011;60055;41.884;12.534;2023-03-14T03:37:56;16.25;;;8.60;;
33413;SDS011;60055;41.884;12.534;2023-03-14T03:40:21;17.95;;;8.55;;
33413;SDS011;60055;41.884;12.534;2023-03-14T03:42:47;17.80;;;8.13;;
33413;SDS011;60055;41.884;12.534;2023-03-14T03:45:12;18.75;;;8.88;;
33413;SDS011;60055;41.884;12.534;2023-03-14T03:47:37;17.13;;;7.93;;
33413;SDS011;60055;41.884;12.534;2023-03-14T03:50:03;15.52;;;8.20;;
33413;SDS011;60055;41.884;12.534;2023-03-14T03:52:29;15.25;;;7.85;;
33413;SDS011;60055;41.884;12.534;2023-03-14T03:54:54;17.60;;;8.48;;
33413;SDS011;60055;41.884;12.534;2023-03-14T03:57:19;18.60;;;8.90;;
33413;SDS011;60055;41.884;12.534;2023-03-14T03:59:45;15.05;;;7.95;;
33413;SDS011;60055;41.884;12.534;2023-03-14T04:02:10;17.75;;;8.27;;
33413;SDS011;60055;41.884;12.534;2023-03-14T04:04:36;15.70;;;9.43;;
33413;SDS011;60055;41.884;12.534;2023-03-14T04:07:03;17.38;;;8.57;;
33413;SDS011;60055;41.884;12.534;2023-03-14T04:09:28;17.08;;;8.68;;
33413;SDS011;60055;41.884;12.534;2023-03-14T04:11:54;16.80;;;8.40;;
33413;SDS011;60055;41.884;12.534;2023-03-14T04:14:19;20.58;;;8.23;;
33413;SDS011;60055;41.884;12.534;2023-03-14T04:16:45;17.83;;;8.75;;
33413;SDS011;60055;41.884;12.534;2023-03-14T04:19:10;19.27;;;9.35;;
33413;SDS011;60055;41.884;12.534;2023-03-14T04:21:35;18.83;;;8.77;;
33413;SDS011;60055;41.884;12.534;2023-03-14T04:24:01;24.48;;;10.02;;
33413;SDS011;60055;41.884;12.534;2023-03-14T04:26:26;21.08;;;9.65;;
33413;SDS011;60055;41.884;12.534;2023-03-14T04:28:51;22.27;;;9.65;;
33413;SDS011;60055;41.884;12.534;2023-03-14T04:31:17;19.58;;;9.90;;
33413;SDS011;60055;41.884;12.534;2023-03-14T04:33:45;17.95;;;9.85;;
33413;SDS011;60055;41.884;12.534;2023-03-14T04:36:11;19.42;;;10.50;;
33413;SDS011;60055;41.884;12.534;2023-03-14T04:38:37;23.55;;;10.60;;
33413;SDS011;60055;41.884;12.534;2023-03-14T04:41:02;19.92;;;10.68;;
33413;SDS011;60055;41.884;12.534;2023-03-14T04:43:28;19.52;;;10.25;;
33413;SDS011;60055;41.884;12.534;2023-03-14T04:45:54;21.65;;;10.55;;
33413;SDS011;60055;41.884;12.534;2023-03-14T04:48:21;19.77;;;9.80;;
33413;SDS011;60055;41.884;12.534;2023-03-14T04:50:47;19.23;;;10.40;;
33413;SDS011;60055;41.884;12.534;2023-03-14T04:53:13;21.50;;;10.27;;
33413;SDS011;60055;41.884;12.534;2023-03-14T04:55:38;19.83;;;10.23;;
33413;SDS011;60055;41.884;12.534;2023-03-14T04:58:04;17.67;;;9.65;;
33413;SDS011;60055;41.884;12.534;2023-03-14T05:00:29;20.52;;;9.77;;
33413;SDS011;60055;41.884;12.534;2023-03-14T05:02:55;19.52;;;9.18;;
33413;SDS011;60055;41.884;12.534;2023-03-14T05:05:20;17.98;;;9.77;;
33413;SDS011;60055;41.884;12.534;2023-03-14T05:07:45;17.65;;;8.50;;
33413;SDS011;60055;41.884;12.534;2023-03-14T05:10:14;19.05;;;9.27;;
33413;SDS011;60055;41.884;12.534;2023-03-14T05:12:40;15.02;;;8.18;;
33413;SDS011;60055;41.884;12.534;2023-03-14T05:15:05;19.15;;;8.90;;
33413;SDS011;60055;41.884;12.534;2023-03-14T05:17:34;18.58;;;8.45;;
33413;SDS011;60055;41.884;12.534;2023-03-14T05:20:00;16.33;;;8.82;;
33413;SDS011;60055;41.884;12.534;2023-03-14T05:22:25;17.85;;;9.10;;
33413;SDS011;60055;41.884;12.534;2023-03-14T05:24:51;18.80;;;8.50;;
33413;SDS011;60055;41.884;12.534;2023-03-14T05:27:16;18.50;;;8.50;;
33413;SDS011;60055;41.884;12.534;2023-03-14T05:29:42;16.35;;;7.97;;
33413;SDS011;60055;41.884;12.534;2023-03-14T05:32:08;16.95;;;7.80;;
33413;SDS011;60055;41.884;12.534;2023-03-14T05:34:33;16.25;;;8.32;;
33413;SDS011;60055;41.884;12.534;2023-03-14T05:36:59;19.83;;;7.82;;
33413;SDS011;60055;41.884;12.534;2023-03-14T05:39:24;16.63;;;7.80;;
33413;SDS011;60055;41.884;12.534;2023-03-14T05:41:50;15.35;;;7.90;;
33413;SDS011;60055;41.884;12.534;2023-03-14T05:44:16;16.55;;;8.80;;
33413;SDS011;60055;41.884;12.534;2023-03-14T05:46:41;15.27;;;8.13;;
33413;SDS011;60055;41.884;12.534;2023-03-14T05:49:06;14.77;;;7.95;;
33413;SDS011;60055;41.884;12.534;2023-03-14T05:51:32;14.95;;;6.75;;
33413;SDS011;60055;41.884;12.534;2023-03-14T05:53:57;12.05;;;5.63;;
33413;SDS011;60055;41.884;12.534;2023-03-14T05:56:22;14.77;;;7.03;;
33413;SDS011;60055;41.884;12.534;2023-03-14T05:58:48;11.27;;;5.45;;
33413;SDS011;60055;41.884;12.534;2023-03-14T06:01:17;14.63;;;6.47;;
33413;SDS011;60055;41.884;12.534;2023-03-14T06:03:42;12.85;;;4.72;;
33413;SDS011;60055;41.884;12.534;2023-03-14T06:06:08;10.65;;;4.70;;
33413;SDS011;60055;41.884;12.534;2023-03-14T06:08:34;11.25;;;4.28;;
33413;SDS011;60055;41.884;12.534;2023-03-14T06:10:59;12.68;;;3.90;;
33413;SDS011;60055;41.884;12.534;2023-03-14T06:13:27;11.63;;;3.88;;
33413;SDS011;60055;41.884;12.534;2023-03-14T06:15:53;8.43;;;3.70;;
33413;SDS011;60055;41.884;12.534;2023-03-14T06:18:18;9.43;;;2.83;;
33413;SDS011;60055;41.884;12.534;2023-03-14T06:20:43;8.35;;;2.60;;
33413;SDS011;60055;41.884;12.534;2023-03-14T06:23:10;11.70;;;2.70;;
33413;SDS011;60055;41.884;12.534;2023-03-14T06:25:37;9.88;;;3.05;;
33413;SDS011;60055;41.884;12.534;2023-03-14T06:28:02;11.88;;;3.10;;
33413;SDS011;60055;41.884;12.534;2023-03-14T06:30:28;7.53;;;2.10;;
33413;SDS011;60055;41.884;12.534;2023-03-14T06:32:53;10.98;;;2.97;;
33413;SDS011;60055;41.884;12.534;2023-03-14T06:35:20;11.23;;;2.58;;
33413;SDS011;60055;41.884;12.534;2023-03-14T06:37:46;15.32;;;3.70;;
33413;SDS011;60055;41.884;12.534;2023-03-14T06:40:12;10.55;;;3.83;;
33413;SDS011;60055;41.884;12.534;2023-03-14T06:42:42;13.23;;;4.43;;
33413;SDS011;60055;41.884;12.534;2023-03-14T06:45:08;17.50;;;4.53;;
33413;SDS011;60055;41.884;12.534;2023-03-14T06:47:33;15.82;;;5.45;;
33413;SDS011;60055;41.884;12.534;2023-03-14T06:49:59;23.65;;;11.82;;
33413;SDS011;60055;41.884;12.534;2023-03-14T06:52:24;19.33;;;6.18;;
33413;SDS011;60055;41.884;12.534;2023-03-14T06:54:49;21.02;;;7.10;;
33413;SDS011;60055;41.884;12.534;2023-03-14T06:57:15;29.27;;;6.90;;
33413;SDS011;60055;41.884;12.534;2023-03-14T06:59:40;24.80;;;6.22;;
33413;SDS011;60055;41.884;12.534;2023-03-14T07:02:07;17.75;;;6.30;;
33413;SDS011;60055;41.884;12.534;2023-03-14T07:04:35;20.25;;;5.82;;
33413;SDS011;60055;41.884;12.534;2023-03-14T07:07:01;15.95;;;5.97;;
33413;SDS011;60055;41.884;12.534;2023-03-14T07:09:26;14.95;;;5.53;;
33413;SDS011;60055;41.884;12.534;2023-03-14T07:11:51;16.00;;;5.53;;
33413;SDS011;60055;41.884;12.534;2023-03-14T07:14:16;21.23;;;5.88;;
33413;SDS011;60055;41.884;12.534;2023-03-14T07:16:42;18.05;;;5.63;;
33413;SDS011;60055;41.884;12.534;2023-03-14T07:19:07;21.80;;;5.88;;
33413;SDS011;60055;41.884;12.534;2023-03-14T07:21:32;14.27;;;5.15;;
33413;SDS011;60055;41.884;12.534;2023-03-14T07:23:59;19.65;;;5.13;;
33413;SDS011;60055;41.884;12.534;2023-03-14T07:26:25;14.75;;;4.13;;
33413;SDS011;60055;41.884;12.534;2023-03-14T07:28:50;11.07;;;2.92;;
33413;SDS011;60055;41.884;12.534;2023-03-14T07:31:15;8.50;;;2.70;;
33413;SDS011;60055;41.884;12.534;2023-03-14T07:33:41;9.80;;;2.35;;
33413;SDS011;60055;41.884;12.534;2023-03-14T07:36:06;12.00;;;2.50;;
33413;SDS011;60055;41.884;12.534;2023-03-14T07:38:33;10.32;;;2.40;;
33413;SDS011;60055;41.884;12.534;2023-03-14T07:40:59;10.90;;;2.00;;
33413;SDS011;60055;41.884;12.534;2023-03-14T07:43:26;10.20;;;2.33;;
33413;SDS011;60055;41.884;12.534;2023-03-14T07:45:51;35.00;;;3.50;;
33413;SDS011;60055;41.884;12.534;2023-03-14T07:48:17;18.60;;;3.00;;
33413;SDS011;60055;41.884;12.534;2023-03-14T07:50:48;15.32;;;2.95;;
33413;SDS011;60055;41.884;12.534;2023-03-14T07:53:14;22.52;;;4.80;;
33413;SDS011;60055;41.884;12.534;2023-03-14T07:55:40;16.50;;;3.67;;
33413;SDS011;60055;41.884;12.534;2023-03-14T07:58:06;14.88;;;4.10;;
33413;SDS011;60055;41.884;12.534;2023-03-14T08:00:31;12.32;;;3.78;;
33413;SDS011;60055;41.884;12.534;2023-03-14T08:02:56;15.13;;;3.15;;
33413;SDS011;60055;41.884;12.534;2023-03-14T08:05:22;19.42;;;3.22;;
33413;SDS011;60055;41.884;12.534;2023-03-14T08:07:47;12.15;;;3.22;;
33413;SDS011;60055;41.884;12.534;2023-03-14T08:10:15;15.10;;;3.05;;
33413;SDS011;60055;41.884;12.534;2023-03-14T08:12:50;11.30;;;2.88;;
33413;SDS011;60055;41.884;12.534;2023-03-14T08:15:19;14.32;;;3.10;;
33413;SDS011;60055;41.884;12.534;2023-03-14T08:17:45;18.88;;;3.75;;
33413;SDS011;60055;41.884;12.534;2023-03-14T08:20:15;14.15;;;2.90;;
33413;SDS011;60055;41.884;12.534;2023-03-14T08:22:44;15.70;;;2.95;;
33413;SDS011;60055;41.884;12.534;2023-03-14T08:25:10;13.13;;;3.03;;
33413;SDS011;60055;41.884;12.534;2023-03-14T08:27:35;15.52;;;2.95;;
33413;SDS011;60055;41.884;12.534;2023-03-14T08:30:07;13.30;;;3.70;;
33413;SDS011;60055;41.884;12.534;2023-03-14T08:33:12;19.45;;;4.30;;
33413;SDS011;60055;41.884;12.534;2023-03-14T08:35:37;25.65;;;7.18;;
33413;SDS011;60055;41.884;12.534;2023-03-14T08:38:04;19.55;;;5.53;;
33413;SDS011;60055;41.884;12.534;2023-03-14T08:40:30;19.95;;;4.72;;
33413;SDS011;60055;41.884;12.534;2023-03-14T08:42:56;15.23;;;3.97;;
33413;SDS011;60055;41.884;12.534;2023-03-14T08:45:21;14.95;;;4.90;;
33413;SDS011;60055;41.884;12.534;2023-03-14T08:47:48;21.45;;;5.22;;
33413;SDS011;60055;41.884;12.534;2023-03-14T08:50:14;21.67;;;4.30;;
33413;SDS011;60055;41.884;12.534;2023-03-14T08:52:39;12.93;;;3.65;;
33413;SDS011;60055;41.884;12.534;2023-03-14T08:55:12;12.63;;;3.83;;
33413;SDS011;60055;41.884;12.534;2023-03-14T08:57:42;14.93;;;4.13;;
33413;SDS011;60055;41.884;12.534;2023-03-14T09:00:07;13.07;;;3.47;;
33413;SDS011;60055;41.884;12.534;2023-03-14T09:02:35;15.20;;;3.50;;
33413;SDS011;60055;41.884;12.534;2023-03-14T09:05:01;17.20;;;4.22;;
33413;SDS011;60055;41.884;12.534;2023-03-14T09:07:27;17.48;;;3.80;;
33413;SDS011;60055;41.884;12.534;2023-03-14T09:09:52;21.10;;;4.75;;
33413;SDS011;60055;41.884;12.534;2023-03-14T09:12:17;21.80;;;3.80;;
33413;SDS011;60055;41.884;12.534;2023-03-14T09:14:44;23.02;;;4.63;;
33413;SDS011;60055;41.884;12.534;2023-03-14T09:17:10;20.85;;;3.85;;
33413;SDS011;60055;41.884;12.534;2023-03-14T09:19:37;22.95;;;3.78;;
33413;SDS011;60055;41.884;12.534;2023-03-14T09:22:07;17.95;;;3.65;;
33413;SDS011;60055;41.884;12.534;2023-03-14T09:24:33;13.20;;;3.58;;
33413;SDS011;60055;41.884;12.534;2023-03-14T09:26:58;16.85;;;3.75;;
33413;SDS011;60055;41.884;12.534;2023-03-14T09:29:24;15.48;;;3.50;;
33413;SDS011;60055;41.884;12.534;2023-03-14T09:31:49;21.35;;;3.95;;
33413;SDS011;60055;41.884;12.534;2023-03-14T09:34:15;15.15;;;3.55;;
33413;SDS011;60055;41.884;12.534;2023-03-14T09:36:40;15.73;;;3.53;;
33413;SDS011;60055;41.884;12.534;2023-03-14T09:39:15;14.88;;;4.05;;
33413;SDS011;60055;41.884;12.534;2023-03-14T09:41:46;14.68;;;3.80;;
33413;SDS011;60055;41.884;12.534;2023-03-14T09:46:52;15.00;;;3.67;;
33413;SDS011;60055;41.884;12.534;2023-03-14T09:49:30;12.38;;;3.50;;
33413;SDS011;60055;41.884;12.534;2023-03-14T09:52:00;19.52;;;3.88;;
33413;SDS011;60055;41.884;12.534;2023-03-14T09:54:34;16.60;;;4.28;;
33413;SDS011;60055;41.884;12.534;2023-03-14T09:57:04;16.33;;;4.10;;
33413;SDS011;60055;41.884;12.534;2023-03-14T09:59:31;16.38;;;3.55;;
33413;SDS011;60055;41.884;12.534;2023-03-14T10:02:01;21.38;;;4.03;;
33413;SDS011;60055;41.884;12.534;2023-03-14T10:04:39;17.40;;;3.60;;
33413;SDS011;60055;41.884;12.534;2023-03-14T10:07:11;13.65;;;3.72;;
33413;SDS011;60055;41.884;12.534;2023-03-14T10:09:53;19.53;;;4.33;;
33413;SDS011;60055;41.884;12.534;2023-03-14T10:12:19;18.73;;;4.05;;
33413;SDS011;60055;41.884;12.534;2023-03-14T10:14:50;18.67;;;4.22;;
33413;SDS011;60055;41.884;12.534;2023-03-14T10:17:20;17.90;;;4.05;;
33413;SDS011;60055;41.884;12.534;2023-03-14T10:22:23;20.83;;;4.82;;
33413;SDS011;60055;41.884;12.534;2023-03-14T10:24:52;19.00;;;4.45;;
33413;SDS011;60055;41.884;12.534;2023-03-14T10:27:22;16.63;;;3.90;;
33413;SDS011;60055;41.884;12.534;2023-03-14T10:30:07;17.92;;;3.95;;
33413;SDS011;60055;41.884;12.534;2023-03-14T10:33:23;17.55;;;3.85;;
33413;SDS011;60055;41.884;12.534;2023-03-14T10:38:49;17.42;;;3.65;;
33413;SDS011;60055;41.884;12.534;2023-03-14T10:50:35;16.73;;;3.92;;
33413;SDS011;60055;41.884;12.534;2023-03-14T10:52:51;14.70;;;3.53;;
33413;SDS011;60055;41.884;12.534;2023-03-14T10:55:17;15.38;;;3.92;;
33413;SDS011;60055;41.884;12.534;2023-03-14T11:00:42;20.15;;;4.50;;
33413;SDS011;60055;41.884;12.534;2023-03-14T11:03:11;19.15;;;3.95;;
33413;SDS011;60055;41.884;12.534;2023-03-14T11:08:25;14.90;;;4.20;;
33413;SDS011;60055;41.884;12.534;2023-03-14T11:11:22;17.52;;;3.63;;
33413;SDS011;60055;41.884;12.534;2023-03-14T11:17:30;21.17;;;4.00;;
33413;SDS011;60055;41.884;12.534;2023-03-14T11:35:59;17.85;;;4.40;;
33413;SDS011;60055;41.884;12.534;2023-03-14T11:38:50;21.13;;;4.20;;
33413;SDS011;60055;41.884;12.534;2023-03-14T11:41:24;14.93;;;3.80;;
33413;SDS011;60055;41.884;12.534;2023-03-14T11:43:59;17.23;;;5.03;;
33413;SDS011;60055;41.884;12.534;2023-03-14T11:46:29;23.38;;;4.47;;
33413;SDS011;60055;41.884;12.534;2023-03-14T11:51:34;15.52;;;3.88;;
33413;SDS011;60055;41.884;12.534;2023-03-14T11:59:16;14.48;;;3.83;;
33413;SDS011;60055;41.884;12.534;2023-03-14T12:04:56;15.40;;;4.20;;
33413;SDS011;60055;41.884;12.534;2023-03-14T12:10:23;15.48;;;4.40;;
33413;SDS011;60055;41.884;12.534;2023-03-14T12:12:52;17.58;;;3.83;;
33413;SDS011;60055;41.884;12.534;2023-03-14T12:15:19;16.23;;;3.60;;
33413;SDS011;60055;41.884;12.534;2023-03-14T12:17:52;16.85;;;3.55;;
33413;SDS011;60055;41.884;12.534;2023-03-14T12:20:21;14.52;;;3.60;;
33413;SDS011;60055;41.884;12.534;2023-03-14T12:22:49;17.95;;;3.63;;
33413;SDS011;60055;41.884;12.534;2023-03-14T12:27:46;12.13;;;3.55;;
33413;SDS011;60055;41.884;12.534;2023-03-14T12:35:50;13.88;;;3.75;;
33413;SDS011;60055;41.884;12.534;2023-03-14T12:41:04;11.38;;;3.30;;
33413;SDS011;60055;41.884;12.534;2023-03-14T12:43:40;11.30;;;3.15;;
33413;SDS011;60055;41.884;12.534;2023-03-14T12:46:07;13.32;;;3.20;;
33413;SDS011;60055;41.884;12.534;2023-03-14T12:48:43;10.93;;;2.95;;
33413;SDS011;60055;41.884;12.534;2023-03-14T12:59:34;13.00;;;3.22;;
33413;SDS011;60055;41.884;12.534;2023-03-14T13:02:48;9.38;;;2.88;;
33413;SDS011;60055;41.884;12.534;2023-03-14T13:08:04;10.77;;;2.83;;
33413;SDS011;60055;41.884;12.534;2023-03-14T13:57:04;14.98;;;3.20;;
33413;SDS011;60055;41.884;12.534;2023-03-14T13:59:36;19.73;;;3.97;;
33413;SDS011;60055;41.884;12.534;2023-03-14T14:02:24;18.45;;;3.70;;
33413;SDS011;60055;41.884;12.534;2023-03-14T14:04:50;14.63;;;3.92;;
33413;SDS011;60055;41.884;12.534;2023-03-14T14:07:16;18.05;;;3.70;;
33413;SDS011;60055;41.884;12.534;2023-03-14T14:09:47;16.52;;;3.83;;
33413;SDS011;60055;41.884;12.534;2023-03-14T14:12:33;21.65;;;4.00;;
33413;SDS011;60055;41.884;12.534;2023-03-14T14:15:25;16.20;;;3.30;;
33413;SDS011;60055;41.884;12.534;2023-03-14T14:18:00;20.98;;;3.92;;
33413;SDS011;60055;41.884;12.534;2023-03-14T14:23:01;20.38;;;4.28;;
33413;SDS011;60055;41.884;12.534;2023-03-14T14:25:31;15.00;;;3.70;;
33413;SDS011;60055;41.884;12.534;2023-03-14T14:34:01;17.75;;;4.03;;
33413;SDS011;60055;41.884;12.534;2023-03-14T14:41:47;19.33;;;4.35;;
33413;SDS011;60055;41.884;12.534;2023-03-14T14:44:16;21.02;;;4.60;;
33413;SDS011;60055;41.884;12.534;2023-03-14T14:46:43;19.77;;;4.20;;
33413;SDS011;60055;41.884;12.534;2023-03-14T14:49:10;15.55;;;4.03;;
33413;SDS011;60055;41.884;12.534;2023-03-14T14:51:44;15.57;;;3.92;;
33413;SDS011;60055;41.884;12.534;2023-03-14T14:54:31;16.00;;;4.28;;
33413;SDS011;60055;41.884;12.534;2023-03-14T14:57:01;15.48;;;4.57;;
33413;SDS011;60055;41.884;12.534;2023-03-14T14:59:31;16.23;;;4.10;;
33413;SDS011;60055;41.884;12.534;2023-03-14T15:01:59;20.17;;;4.07;;
33413;SDS011;60055;41.884;12.534;2023-03-14T15:04:26;16.33;;;4.22;;
33413;SDS011;60055;41.884;12.534;2023-03-14T15:06:55;18.42;;;3.88;;
33413;SDS011;60055;41.884;12.534;2023-03-14T15:09:23;18.63;;;4.05;;
33413;SDS011;60055;41.884;12.534;2023-03-14T15:11:53;15.57;;;4.20;;
33413;SDS011;60055;41.884;12.534;2023-03-14T15:14:34;15.63;;;4.25;;
33413;SDS011;60055;41.884;12.534;2023-03-14T15:17:46;16.75;;;4.22;;
33413;SDS011;60055;41.884;12.534;2023-03-14T15:20:15;18.38;;;4.40;;
33413;SDS011;60055;41.884;12.534;2023-03-14T15:22:42;17.05;;;4.22;;
33413;SDS011;60055;41.884;12.534;2023-03-14T15:25:08;9.73;;;3.58;;
33413;SDS011;60055;41.884;12.534;2023-03-14T15:27:35;11.90;;;3.95;;
33413;SDS011;60055;41.884;12.534;2023-03-14T15:30:12;15.35;;;4.25;;
33413;SDS011;60055;41.884;12.534;2023-03-14T15:38:57;19.10;;;4.43;;
33413;SDS011;60055;41.884;12.534;2023-03-14T15:41:23;15.52;;;4.40;;
33413;SDS011;60055;41.884;12.534;2023-03-14T15:43:49;16.63;;;4.88;;
33413;SDS011;60055;41.884;12.534;2023-03-14T15:46:18;17.17;;;4.35;;
33413;SDS011;60055;41.884;12.534;2023-03-14T15:48:46;9.57;;;3.13;;
33413;SDS011;60055;41.884;12.534;2023-03-14T15:51:13;11.52;;;3.22;;
33413;SDS011;60055;41.884;12.534;2023-03-14T15:53:39;13.25;;;3.63;;
33413;SDS011;60055;41.884;12.534;2023-03-14T15:56:19;12.07;;;5.53;;
33413;SDS011;60055;41.884;12.534;2023-03-14T15:58:47;13.90;;;5.10;;
33413;SDS011;60055;41.884;12.534;2023-03-14T16:01:37;18.95;;;4.18;;
33413;SDS011;60055;41.884;12.534;2023-03-14T16:04:02;23.10;;;4.80;;
33413;SDS011;60055;41.884;12.534;2023-03-14T16:06:28;21.45;;;4.32;;
33413;SDS011;60055;41.884;12.534;2023-03-14T16:11:37;18.15;;;4.43;;
33413;SDS011;60055;41.884;12.534;2023-03-14T16:14:13;21.08;;;4.85;;
33413;SDS011;60055;41.884;12.534;2023-03-14T16:16:38;19.55;;;4.57;;
33413;SDS011;60055;41.884;12.534;2023-03-14T16:19:07;25.85;;;5.30;;
33413;SDS011;60055;41.884;12.534;2023-03-14T16:21:33;23.33;;;4.60;;
33413;SDS011;60055;41.884;12.534;2023-03-14T16:24:01;29.60;;;5.32;;
33413;SDS011;60055;41.884;12.534;2023-03-14T16:26:31;27.60;;;5.22;;
33413;SDS011;60055;41.884;12.534;2023-03-14T16:29:03;33.33;;;5.28;;
33413;SDS011;60055;41.884;12.534;2023-03-14T16:31:28;34.42;;;5.88;;
33413;SDS011;60055;41.884;12.534;2023-03-14T16:33:53;38.90;;;5.63;;
33413;SDS011;60055;41.884;12.534;2023-03-14T16:36:18;34.72;;;5.43;;
33413;SDS011;60055;41.884;12.534;2023-03-14T16:38:49;27.85;;;5.18;;
33413;SDS011;60055;41.884;12.534;2023-03-14T16:41:16;32.72;;;5.80;;
33413;SDS011;60055;41.884;12.534;2023-03-14T16:43:43;25.40;;;4.88;;
33413;SDS011;60055;41.884;12.534;2023-03-14T16:46:15;26.00;;;5.10;;
33413;SDS011;60055;41.884;12.534;2023-03-14T16:48:46;34.92;;;5.40;;
33413;SDS011;60055;41.884;12.534;2023-03-14T16:51:11;37.85;;;5.88;;
33413;SDS011;60055;41.884;12.534;2023-03-14T16:53:38;37.30;;;6.05;;
33413;SDS011;60055;41.884;12.534;2023-03-14T16:56:05;34.42;;;6.20;;
33413;SDS011;60055;41.884;12.534;2023-03-14T16:58:30;34.80;;;6.10;;
33413;SDS011;60055;41.884;12.534;2023-03-14T17:00:56;37.95;;;6.38;;
33413;SDS011;60055;41.884;12.534;2023-03-14T17:03:22;39.92;;;6.68;;